sensor_id;sensor_type;location;lat;lon;timestamp;temperature;humidity
50570;DHT22;36525;49.398;7.614;2022-11-06T00:01:48;5.30;99.90
50570;DHT22;36525;49.398;7.614;2022-11-06T00:04:15;5.20;99.90
50570;DHT22;36525;49.398;7.614;2022-11-06T00:06:42;5.20;99.90
50570;DHT22;36525;49.398;7.614;2022-11-06T00:09:17;5.20;99.90
50570;DHT22;36525;49.398;7.614;2022-11-06T00:11:46;5.20;99.90
50570;DHT22;36525;49.398;7.614;2022-11-06T00:14:15;5.20;99.90
50570;DHT22;36525;49.398;7.614;2022-11-06T00:16:44;5.20;99.90
50570;DHT22;36525;49.398;7.614;2022-11-06T00:19:12;5.10;99.90
50570;DHT22;36525;49.398;7.614;2022-11-06T00:21:39;5.10;99.90
50570;DHT22;36525;49.398;7.614;2022-11-06T00:24:07;5.10;99.90
50570;DHT22;36525;49.398;7.614;2022-11-06T00:26:35;5.00;99.90
50570;DHT22;36525;49.398;7.614;2022-11-06T00:29:03;5.00;99.90
50570;DHT22;36525;49.398;7.614;2022-11-06T00:31:34;4.90;99.90
50570;DHT22;36525;49.398;7.614;2022-11-06T00:34:03;4.80;99.90
50570;DHT22;36525;49.398;7.614;2022-11-06T00:36:33;4.70;99.90
50570;DHT22;36525;49.398;7.614;2022-11-06T00:39:01;4.60;99.90
50570;DHT22;36525;49.398;7.614;2022-11-06T00:41:28;4.60;99.90
50570;DHT22;36525;49.398;7.614;2022-11-06T00:43:58;4.70;99.90
50570;DHT22;36525;49.398;7.614;2022-11-06T00:46:26;4.70;99.90
50570;DHT22;36525;49.398;7.614;2022-11-06T00:48:53;4.70;99.90
50570;DHT22;36525;49.398;7.614;2022-11-06T00:51:29;4.70;99.90
50570;DHT22;36525;49.398;7.614;2022-11-06T00:54:02;4.80;99.90
50570;DHT22;36525;49.398;7.614;2022-11-06T00:56:31;4.80;99.90
50570;DHT22;36525;49.398;7.614;2022-11-06T00:58:59;4.90;99.90
50570;DHT22;36525;49.398;7.614;2022-11-06T01:01:29;4.90;99.90
50570;DHT22;36525;49.398;7.614;2022-11-06T01:04:04;5.00;99.90
50570;DHT22;36525;49.398;7.614;2022-11-06T01:06:39;5.00;99.90
50570;DHT22;36525;49.398;7.614;2022-11-06T01:09:09;5.00;99.90
50570;DHT22;36525;49.398;7.614;2022-11-06T01:11:42;5.00;99.90
50570;DHT22;36525;49.398;7.614;2022-11-06T01:14:31;5.00;99.90
50570;DHT22;36525;49.398;7.614;2022-11-06T01:16:58;4.90;99.90
50570;DHT22;36525;49.398;7.614;2022-11-06T01:19:25;4.90;99.90
50570;DHT22;36525;49.398;7.614;2022-11-06T01:21:52;4.90;99.90
50570;DHT22;36525;49.398;7.614;2022-11-06T01:24:27;4.90;99.90
50570;DHT22;36525;49.398;7.614;2022-11-06T01:26:55;4.90;99.90
50570;DHT22;36525;49.398;7.614;2022-11-06T01:29:43;4.80;99.90
50570;DHT22;36525;49.398;7.614;2022-11-06T01:32:10;4.80;99.90
50570;DHT22;36525;49.398;7.614;2022-11-06T01:34:37;4.90;99.90
50570;DHT22;36525;49.398;7.614;2022-11-06T01:37:04;4.90;99.90
50570;DHT22;36525;49.398;7.614;2022-11-06T01:39:31;4.90;99.90
50570;DHT22;36525;49.398;7.614;2022-11-06T01:41:58;4.90;99.90
50570;DHT22;36525;49.398;7.614;2022-11-06T01:47:03;4.90;99.90
50570;DHT22;36525;49.398;7.614;2022-11-06T01:49:35;4.90;99.90
50570;DHT22;36525;49.398;7.614;2022-11-06T01:52:09;4.90;99.90
50570;DHT22;36525;49.398;7.614;2022-11-06T01:54:39;4.90;99.90
50570;DHT22;36525;49.398;7.614;2022-11-06T01:57:08;4.90;99.90
50570;DHT22;36525;49.398;7.614;2022-11-06T01:59:37;4.90;99.90
50570;DHT22;36525;49.398;7.614;2022-11-06T02:02:07;4.90;99.90
50570;DHT22;36525;49.398;7.614;2022-11-06T02:04:41;4.80;99.90
50570;DHT22;36525;49.398;7.614;2022-11-06T02:07:11;4.70;99.90
50570;DHT22;36525;49.398;7.614;2022-11-06T02:09:38;4.70;99.90
50570;DHT22;36525;49.398;7.614;2022-11-06T02:18:43;4.70;99.90
50570;DHT22;36525;49.398;7.614;2022-11-06T02:23:49;4.60;99.90
50570;DHT22;36525;49.398;7.614;2022-11-06T02:29:19;4.60;99.90
50570;DHT22;36525;49.398;7.614;2022-11-06T02:31:49;4.60;99.90
50570;DHT22;36525;49.398;7.614;2022-11-06T02:34:19;4.60;99.90
50570;DHT22;36525;49.398;7.614;2022-11-06T02:36:59;4.50;99.90
50570;DHT22;36525;49.398;7.614;2022-11-06T02:39:28;4.50;99.90
50570;DHT22;36525;49.398;7.614;2022-11-06T02:41:57;4.40;99.90
50570;DHT22;36525;49.398;7.614;2022-11-06T02:44:27;4.30;99.90
50570;DHT22;36525;49.398;7.614;2022-11-06T02:47:06;4.20;99.90
50570;DHT22;36525;49.398;7.614;2022-11-06T02:50:04;4.20;99.90
50570;DHT22;36525;49.398;7.614;2022-11-06T02:52:44;4.10;99.90
50570;DHT22;36525;49.398;7.614;2022-11-06T02:55:17;4.20;99.90
50570;DHT22;36525;49.398;7.614;2022-11-06T02:57:48;4.20;99.90
50570;DHT22;36525;49.398;7.614;2022-11-06T03:00:18;4.10;99.90
50570;DHT22;36525;49.398;7.614;2022-11-06T03:02:55;4.10;99.90
50570;DHT22;36525;49.398;7.614;2022-11-06T03:05:46;4.00;99.90
50570;DHT22;36525;49.398;7.614;2022-11-06T03:08:35;3.90;99.90
50570;DHT22;36525;49.398;7.614;2022-11-06T03:11:25;3.90;99.90
50570;DHT22;36525;49.398;7.614;2022-11-06T03:17:19;3.80;99.90
50570;DHT22;36525;49.398;7.614;2022-11-06T03:20:23;3.70;99.90
50570;DHT22;36525;49.398;7.614;2022-11-06T03:25:57;3.60;99.90
50570;DHT22;36525;49.398;7.614;2022-11-06T03:28:39;3.60;99.90
50570;DHT22;36525;49.398;7.614;2022-11-06T03:31:33;3.60;99.90
50570;DHT22;36525;49.398;7.614;2022-11-06T03:34:07;3.60;99.90
50570;DHT22;36525;49.398;7.614;2022-11-06T03:36:44;3.50;99.90
50570;DHT22;36525;49.398;7.614;2022-11-06T03:39:17;3.50;99.90
50570;DHT22;36525;49.398;7.614;2022-11-06T03:42:13;3.40;99.90
50570;DHT22;36525;49.398;7.614;2022-11-06T03:44:43;3.40;99.90
50570;DHT22;36525;49.398;7.614;2022-11-06T03:47:22;3.40;99.90
50570;DHT22;36525;49.398;7.614;2022-11-06T03:50:09;3.40;99.90
50570;DHT22;36525;49.398;7.614;2022-11-06T03:52:45;3.40;99.90
50570;DHT22;36525;49.398;7.614;2022-11-06T03:55:23;3.30;99.90
50570;DHT22;36525;49.398;7.614;2022-11-06T03:58:02;3.30;99.90
50570;DHT22;36525;49.398;7.614;2022-11-06T04:00:33;3.30;99.90
50570;DHT22;36525;49.398;7.614;2022-11-06T04:03:06;3.30;99.90
50570;DHT22;36525;49.398;7.614;2022-11-06T04:05:44;3.30;99.90
50570;DHT22;36525;49.398;7.614;2022-11-06T04:08:15;3.40;99.90
50570;DHT22;36525;49.398;7.614;2022-11-06T04:11:02;3.40;99.90
50570;DHT22;36525;49.398;7.614;2022-11-06T04:13:51;3.40;99.90
50570;DHT22;36525;49.398;7.614;2022-11-06T04:16:42;3.30;99.90
50570;DHT22;36525;49.398;7.614;2022-11-06T04:19:16;3.30;99.90
50570;DHT22;36525;49.398;7.614;2022-11-06T04:21:56;3.30;99.90
50570;DHT22;36525;49.398;7.614;2022-11-06T04:24:58;3.30;99.90
50570;DHT22;36525;49.398;7.614;2022-11-06T04:34:00;3.30;99.90
50570;DHT22;36525;49.398;7.614;2022-11-06T04:39:53;3.30;99.90
50570;DHT22;36525;49.398;7.614;2022-11-06T04:45:17;3.40;99.90
50570;DHT22;36525;49.398;7.614;2022-11-06T04:47:51;3.40;99.90
50570;DHT22;36525;49.398;7.614;2022-11-06T04:50:20;3.40;99.90
50570;DHT22;36525;49.398;7.614;2022-11-06T04:52:49;3.50;99.90
50570;DHT22;36525;49.398;7.614;2022-11-06T04:55:18;3.50;99.90
50570;DHT22;36525;49.398;7.614;2022-11-06T04:57:46;3.50;99.90
50570;DHT22;36525;49.398;7.614;2022-11-06T05:00:14;3.50;99.90
50570;DHT22;36525;49.398;7.614;2022-11-06T05:02:41;3.60;99.90
50570;DHT22;36525;49.398;7.614;2022-11-06T05:05:08;3.50;99.90
50570;DHT22;36525;49.398;7.614;2022-11-06T05:07:35;3.50;99.90
50570;DHT22;36525;49.398;7.614;2022-11-06T05:10:03;3.50;99.90
50570;DHT22;36525;49.398;7.614;2022-11-06T05:12:30;3.50;99.90
50570;DHT22;36525;49.398;7.614;2022-11-06T05:14:57;3.60;99.90
50570;DHT22;36525;49.398;7.614;2022-11-06T05:17:24;3.60;99.90
50570;DHT22;36525;49.398;7.614;2022-11-06T05:19:50;3.60;99.90
50570;DHT22;36525;49.398;7.614;2022-11-06T05:22:17;3.50;99.90
50570;DHT22;36525;49.398;7.614;2022-11-06T05:25:03;3.30;99.90
50570;DHT22;36525;49.398;7.614;2022-11-06T05:27:30;3.20;99.90
50570;DHT22;36525;49.398;7.614;2022-11-06T05:29:57;3.10;99.90
50570;DHT22;36525;49.398;7.614;2022-11-06T05:32:24;3.10;99.90
50570;DHT22;36525;49.398;7.614;2022-11-06T05:34:50;3.10;99.90
50570;DHT22;36525;49.398;7.614;2022-11-06T05:37:17;3.00;99.90
50570;DHT22;36525;49.398;7.614;2022-11-06T05:39:44;3.00;99.90
50570;DHT22;36525;49.398;7.614;2022-11-06T05:42:11;2.90;99.90
50570;DHT22;36525;49.398;7.614;2022-11-06T05:44:38;2.80;99.90
50570;DHT22;36525;49.398;7.614;2022-11-06T05:47:05;2.80;99.90
50570;DHT22;36525;49.398;7.614;2022-11-06T05:49:31;2.80;99.90
50570;DHT22;36525;49.398;7.614;2022-11-06T05:51:58;2.80;99.90
50570;DHT22;36525;49.398;7.614;2022-11-06T05:54:25;2.80;99.90
50570;DHT22;36525;49.398;7.614;2022-11-06T05:56:52;2.70;99.90
50570;DHT22;36525;49.398;7.614;2022-11-06T05:59:19;2.70;99.90
50570;DHT22;36525;49.398;7.614;2022-11-06T06:01:46;2.60;99.90
50570;DHT22;36525;49.398;7.614;2022-11-06T06:04:13;2.60;99.90
50570;DHT22;36525;49.398;7.614;2022-11-06T06:06:40;2.60;99.90
50570;DHT22;36525;49.398;7.614;2022-11-06T06:09:07;2.60;99.90
50570;DHT22;36525;49.398;7.614;2022-11-06T06:11:34;2.60;99.90
50570;DHT22;36525;49.398;7.614;2022-11-06T06:14:01;2.60;99.90
50570;DHT22;36525;49.398;7.614;2022-11-06T06:16:27;2.60;99.90
50570;DHT22;36525;49.398;7.614;2022-11-06T06:18:54;2.70;99.90
50570;DHT22;36525;49.398;7.614;2022-11-06T06:21:21;2.70;99.90
50570;DHT22;36525;49.398;7.614;2022-11-06T06:23:48;2.60;99.90
50570;DHT22;36525;49.398;7.614;2022-11-06T06:26:15;2.60;99.90
50570;DHT22;36525;49.398;7.614;2022-11-06T06:28:42;2.50;99.90
50570;DHT22;36525;49.398;7.614;2022-11-06T06:31:09;2.50;99.90
50570;DHT22;36525;49.398;7.614;2022-11-06T06:33:36;2.40;99.90
50570;DHT22;36525;49.398;7.614;2022-11-06T06:36:04;2.40;99.90
50570;DHT22;36525;49.398;7.614;2022-11-06T06:38:32;2.30;99.90
50570;DHT22;36525;49.398;7.614;2022-11-06T06:41:06;2.30;99.90
50570;DHT22;36525;49.398;7.614;2022-11-06T06:43:34;2.20;99.90
50570;DHT22;36525;49.398;7.614;2022-11-06T06:46:04;2.30;99.90
50570;DHT22;36525;49.398;7.614;2022-11-06T06:48:32;2.20;99.90
50570;DHT22;36525;49.398;7.614;2022-11-06T06:51:00;2.30;99.90
50570;DHT22;36525;49.398;7.614;2022-11-06T06:53:28;2.30;99.90
50570;DHT22;36525;49.398;7.614;2022-11-06T06:55:57;2.50;99.90
50570;DHT22;36525;49.398;7.614;2022-11-06T06:58:29;2.50;99.90
50570;DHT22;36525;49.398;7.614;2022-11-06T07:01:01;2.60;99.90
50570;DHT22;36525;49.398;7.614;2022-11-06T07:03:29;2.70;99.90
50570;DHT22;36525;49.398;7.614;2022-11-06T07:05:59;2.70;99.90
50570;DHT22;36525;49.398;7.614;2022-11-06T07:08:27;2.70;99.90
50570;DHT22;36525;49.398;7.614;2022-11-06T07:11:00;2.80;99.90
50570;DHT22;36525;49.398;7.614;2022-11-06T07:13:29;2.90;99.90
50570;DHT22;36525;49.398;7.614;2022-11-06T07:16:03;3.00;99.90
50570;DHT22;36525;49.398;7.614;2022-11-06T07:18:32;3.10;99.90
50570;DHT22;36525;49.398;7.614;2022-11-06T07:20:59;3.10;99.90
50570;DHT22;36525;49.398;7.614;2022-11-06T07:23:26;3.20;99.90
50570;DHT22;36525;49.398;7.614;2022-11-06T07:25:53;3.30;99.90
50570;DHT22;36525;49.398;7.614;2022-11-06T07:28:20;3.30;99.90
50570;DHT22;36525;49.398;7.614;2022-11-06T07:30:47;3.40;99.90
50570;DHT22;36525;49.398;7.614;2022-11-06T07:33:14;3.40;99.90
50570;DHT22;36525;49.398;7.614;2022-11-06T07:35:41;3.30;99.90
50570;DHT22;36525;49.398;7.614;2022-11-06T07:38:08;3.30;99.90
50570;DHT22;36525;49.398;7.614;2022-11-06T07:40:35;3.40;99.90
50570;DHT22;36525;49.398;7.614;2022-11-06T07:43:07;3.60;99.90
50570;DHT22;36525;49.398;7.614;2022-11-06T07:45:36;3.70;99.90
50570;DHT22;36525;49.398;7.614;2022-11-06T07:48:05;3.90;99.90
50570;DHT22;36525;49.398;7.614;2022-11-06T07:50:32;4.00;99.90
50570;DHT22;36525;49.398;7.614;2022-11-06T07:53:00;4.10;99.90
50570;DHT22;36525;49.398;7.614;2022-11-06T07:55:28;4.30;99.90
50570;DHT22;36525;49.398;7.614;2022-11-06T07:57:57;4.30;99.90
50570;DHT22;36525;49.398;7.614;2022-11-06T08:00:25;4.30;99.90
50570;DHT22;36525;49.398;7.614;2022-11-06T08:02:52;4.30;99.90
50570;DHT22;36525;49.398;7.614;2022-11-06T08:05:19;4.50;99.90
50570;DHT22;36525;49.398;7.614;2022-11-06T08:07:46;4.70;99.90
50570;DHT22;36525;49.398;7.614;2022-11-06T08:10:13;4.90;99.90
50570;DHT22;36525;49.398;7.614;2022-11-06T08:12:40;5.00;99.90
50570;DHT22;36525;49.398;7.614;2022-11-06T08:15:07;5.10;99.90
50570;DHT22;36525;49.398;7.614;2022-11-06T08:17:34;5.30;99.90
50570;DHT22;36525;49.398;7.614;2022-11-06T08:20:01;5.50;99.90
50570;DHT22;36525;49.398;7.614;2022-11-06T08:22:28;5.60;99.90
50570;DHT22;36525;49.398;7.614;2022-11-06T08:24:55;5.70;99.90
50570;DHT22;36525;49.398;7.614;2022-11-06T08:27:22;5.80;99.90
50570;DHT22;36525;49.398;7.614;2022-11-06T08:29:49;6.00;99.90
50570;DHT22;36525;49.398;7.614;2022-11-06T08:32:16;6.10;99.90
50570;DHT22;36525;49.398;7.614;2022-11-06T08:34:43;6.20;99.90
50570;DHT22;36525;49.398;7.614;2022-11-06T08:37:10;6.40;99.90
50570;DHT22;36525;49.398;7.614;2022-11-06T08:39:37;6.60;99.90
50570;DHT22;36525;49.398;7.614;2022-11-06T08:42:04;6.70;99.90
50570;DHT22;36525;49.398;7.614;2022-11-06T08:44:31;6.80;99.90
50570;DHT22;36525;49.398;7.614;2022-11-06T08:46:58;6.90;99.90
50570;DHT22;36525;49.398;7.614;2022-11-06T08:49:25;7.10;99.90
50570;DHT22;36525;49.398;7.614;2022-11-06T08:51:52;7.10;99.90
50570;DHT22;36525;49.398;7.614;2022-11-06T08:54:20;7.20;99.90
50570;DHT22;36525;49.398;7.614;2022-11-06T08:56:47;7.20;99.90
50570;DHT22;36525;49.398;7.614;2022-11-06T08:59:14;7.20;99.90
50570;DHT22;36525;49.398;7.614;2022-11-06T09:01:41;7.20;99.90
50570;DHT22;36525;49.398;7.614;2022-11-06T09:04:08;7.20;99.90
50570;DHT22;36525;49.398;7.614;2022-11-06T09:06:35;7.30;99.90
50570;DHT22;36525;49.398;7.614;2022-11-06T09:09:02;7.30;99.90
50570;DHT22;36525;49.398;7.614;2022-11-06T09:11:29;7.40;99.90
50570;DHT22;36525;49.398;7.614;2022-11-06T09:13:57;7.60;99.90
50570;DHT22;36525;49.398;7.614;2022-11-06T09:16:23;7.70;99.90
50570;DHT22;36525;49.398;7.614;2022-11-06T09:18:55;7.80;99.90
50570;DHT22;36525;49.398;7.614;2022-11-06T09:21:23;7.90;99.90
50570;DHT22;36525;49.398;7.614;2022-11-06T09:23:51;8.00;99.90
50570;DHT22;36525;49.398;7.614;2022-11-06T09:26:17;8.10;99.90
50570;DHT22;36525;49.398;7.614;2022-11-06T09:28:45;8.10;99.90
50570;DHT22;36525;49.398;7.614;2022-11-06T09:31:13;8.00;99.90
50570;DHT22;36525;49.398;7.614;2022-11-06T09:33:39;8.10;99.90
50570;DHT22;36525;49.398;7.614;2022-11-06T09:36:07;8.20;99.90
50570;DHT22;36525;49.398;7.614;2022-11-06T09:38:34;8.30;99.90
50570;DHT22;36525;49.398;7.614;2022-11-06T09:41:02;8.50;99.90
50570;DHT22;36525;49.398;7.614;2022-11-06T09:46:52;8.70;99.90
50570;DHT22;36525;49.398;7.614;2022-11-06T09:49:39;8.90;99.90
50570;DHT22;36525;49.398;7.614;2022-11-06T09:54:53;9.00;99.90
50570;DHT22;36525;49.398;7.614;2022-11-06T09:57:51;9.10;99.90
50570;DHT22;36525;49.398;7.614;2022-11-06T10:00:22;9.20;99.90
50570;DHT22;36525;49.398;7.614;2022-11-06T10:02:51;9.30;99.90
50570;DHT22;36525;49.398;7.614;2022-11-06T10:07:54;9.30;99.90
50570;DHT22;36525;49.398;7.614;2022-11-06T10:10:40;9.40;99.90
50570;DHT22;36525;49.398;7.614;2022-11-06T10:13:25;9.30;99.90
50570;DHT22;36525;49.398;7.614;2022-11-06T10:21:24;9.30;99.90
50570;DHT22;36525;49.398;7.614;2022-11-06T10:24:29;9.40;99.90
50570;DHT22;36525;49.398;7.614;2022-11-06T10:30:14;9.70;99.90
50570;DHT22;36525;49.398;7.614;2022-11-06T10:33:28;9.80;99.90
50570;DHT22;36525;49.398;7.614;2022-11-06T10:36:13;9.90;99.90
50570;DHT22;36525;49.398;7.614;2022-11-06T10:38:54;9.90;99.90
50570;DHT22;36525;49.398;7.614;2022-11-06T10:41:24;10.00;99.90
50570;DHT22;36525;49.398;7.614;2022-11-06T10:44:07;10.20;99.90
50570;DHT22;36525;49.398;7.614;2022-11-06T10:47:19;10.30;99.90
50570;DHT22;36525;49.398;7.614;2022-11-06T10:49:58;10.50;99.90
50570;DHT22;36525;49.398;7.614;2022-11-06T10:58:21;10.90;99.90
50570;DHT22;36525;49.398;7.614;2022-11-06T11:00:59;11.00;99.90
50570;DHT22;36525;49.398;7.614;2022-11-06T11:03:34;11.00;99.90
50570;DHT22;36525;49.398;7.614;2022-11-06T11:06:03;11.10;99.90
50570;DHT22;36525;49.398;7.614;2022-11-06T11:08:31;11.20;99.90
50570;DHT22;36525;49.398;7.614;2022-11-06T11:13:31;11.60;99.90
50570;DHT22;36525;49.398;7.614;2022-11-06T11:16:01;11.60;99.90
50570;DHT22;36525;49.398;7.614;2022-11-06T11:18:30;11.70;99.90
50570;DHT22;36525;49.398;7.614;2022-11-06T11:21:09;11.60;99.90
50570;DHT22;36525;49.398;7.614;2022-11-06T11:23:46;11.70;99.90
50570;DHT22;36525;49.398;7.614;2022-11-06T11:26:53;11.60;99.90
50570;DHT22;36525;49.398;7.614;2022-11-06T11:29:32;11.50;99.90
50570;DHT22;36525;49.398;7.614;2022-11-06T11:32:06;11.40;99.90
50570;DHT22;36525;49.398;7.614;2022-11-06T11:34:36;11.40;99.90
50570;DHT22;36525;49.398;7.614;2022-11-06T11:37:30;11.40;99.90
50570;DHT22;36525;49.398;7.614;2022-11-06T11:42:48;11.40;99.90
50570;DHT22;36525;49.398;7.614;2022-11-06T11:45:18;11.50;99.90
50570;DHT22;36525;49.398;7.614;2022-11-06T11:47:48;11.50;99.90
50570;DHT22;36525;49.398;7.614;2022-11-06T11:50:24;11.50;99.90
50570;DHT22;36525;49.398;7.614;2022-11-06T11:53:06;11.40;99.90
50570;DHT22;36525;49.398;7.614;2022-11-06T11:55:44;11.20;99.90
50570;DHT22;36525;49.398;7.614;2022-11-06T11:58:23;11.20;99.90
50570;DHT22;36525;49.398;7.614;2022-11-06T12:01:11;11.00;99.90
50570;DHT22;36525;49.398;7.614;2022-11-06T12:03:41;11.00;99.90
50570;DHT22;36525;49.398;7.614;2022-11-06T12:06:12;11.00;99.90
50570;DHT22;36525;49.398;7.614;2022-11-06T12:08:48;11.10;99.90
50570;DHT22;36525;49.398;7.614;2022-11-06T12:11:22;11.20;99.90
50570;DHT22;36525;49.398;7.614;2022-11-06T12:16:52;11.20;99.90
50570;DHT22;36525;49.398;7.614;2022-11-06T12:19:28;11.20;99.90
50570;DHT22;36525;49.398;7.614;2022-11-06T12:22:02;11.20;99.90
50570;DHT22;36525;49.398;7.614;2022-11-06T12:24:38;11.10;99.90
50570;DHT22;36525;49.398;7.614;2022-11-06T12:27:16;10.90;99.90
50570;DHT22;36525;49.398;7.614;2022-11-06T12:30:00;10.90;99.90
50570;DHT22;36525;49.398;7.614;2022-11-06T12:35:28;10.90;99.90
50570;DHT22;36525;49.398;7.614;2022-11-06T12:43:46;11.00;99.90
50570;DHT22;36525;49.398;7.614;2022-11-06T12:46:27;10.90;99.90
50570;DHT22;36525;49.398;7.614;2022-11-06T12:52:00;10.80;99.90
50570;DHT22;36525;49.398;7.614;2022-11-06T13:00:21;10.70;99.90
50570;DHT22;36525;49.398;7.614;2022-11-06T13:03:26;10.60;99.90
50570;DHT22;36525;49.398;7.614;2022-11-06T13:09:19;10.30;99.90
50570;DHT22;36525;49.398;7.614;2022-11-06T13:12:17;10.30;99.90
50570;DHT22;36525;49.398;7.614;2022-11-06T13:18:27;10.40;99.90
50570;DHT22;36525;49.398;7.614;2022-11-06T13:23:56;10.40;99.90
50570;DHT22;36525;49.398;7.614;2022-11-06T13:29:13;10.40;99.90
50570;DHT22;36525;49.398;7.614;2022-11-06T13:31:46;10.30;99.90
50570;DHT22;36525;49.398;7.614;2022-11-06T13:34:26;10.30;99.90
50570;DHT22;36525;49.398;7.614;2022-11-06T13:36:56;10.40;99.90
50570;DHT22;36525;49.398;7.614;2022-11-06T13:39:38;10.40;99.90
50570;DHT22;36525;49.398;7.614;2022-11-06T13:42:22;10.50;99.90
50570;DHT22;36525;49.398;7.614;2022-11-06T13:44:53;10.50;99.90
50570;DHT22;36525;49.398;7.614;2022-11-06T13:47:52;10.40;99.90
50570;DHT22;36525;49.398;7.614;2022-11-06T13:50:46;10.30;99.90
50570;DHT22;36525;49.398;7.614;2022-11-06T13:53:44;10.20;99.90
50570;DHT22;36525;49.398;7.614;2022-11-06T14:07:58;10.00;99.90
50570;DHT22;36525;49.398;7.614;2022-11-06T14:10:34;10.00;99.90
50570;DHT22;36525;49.398;7.614;2022-11-06T14:13:03;9.90;99.90
50570;DHT22;36525;49.398;7.614;2022-11-06T14:15:38;9.80;99.90
50570;DHT22;36525;49.398;7.614;2022-11-06T14:18:13;9.80;99.90
50570;DHT22;36525;49.398;7.614;2022-11-06T14:20:46;9.80;99.90
50570;DHT22;36525;49.398;7.614;2022-11-06T14:26:12;9.80;99.90
50570;DHT22;36525;49.398;7.614;2022-11-06T14:28:41;9.80;99.90
50570;DHT22;36525;49.398;7.614;2022-11-06T14:31:10;9.70;99.90
50570;DHT22;36525;49.398;7.614;2022-11-06T14:36:27;9.80;99.90
50570;DHT22;36525;49.398;7.614;2022-11-06T14:38:58;9.80;99.90
50570;DHT22;36525;49.398;7.614;2022-11-06T14:46:55;9.70;99.90
50570;DHT22;36525;49.398;7.614;2022-11-06T14:49:38;9.70;99.90
50570;DHT22;36525;49.398;7.614;2022-11-06T14:52:10;9.60;99.90
50570;DHT22;36525;49.398;7.614;2022-11-06T14:54:54;9.60;99.90
50570;DHT22;36525;49.398;7.614;2022-11-06T14:57:47;9.50;99.90
50570;DHT22;36525;49.398;7.614;2022-11-06T15:00:35;9.50;99.90
50570;DHT22;36525;49.398;7.614;2022-11-06T15:03:15;9.40;99.90
50570;DHT22;36525;49.398;7.614;2022-11-06T15:05:47;9.30;99.90
50570;DHT22;36525;49.398;7.614;2022-11-06T15:08:55;9.30;99.90
50570;DHT22;36525;49.398;7.614;2022-11-06T15:16:42;9.10;99.90
50570;DHT22;36525;49.398;7.614;2022-11-06T15:21:50;9.00;99.90
50570;DHT22;36525;49.398;7.614;2022-11-06T15:24:35;8.90;99.90
50570;DHT22;36525;49.398;7.614;2022-11-06T15:27:10;9.00;99.90
50570;DHT22;36525;49.398;7.614;2022-11-06T15:29:39;8.90;99.90
50570;DHT22;36525;49.398;7.614;2022-11-06T15:32:16;8.80;99.90
50570;DHT22;36525;49.398;7.614;2022-11-06T15:37:34;8.70;99.90
50570;DHT22;36525;49.398;7.614;2022-11-06T15:40:05;8.70;99.90
50570;DHT22;36525;49.398;7.614;2022-11-06T15:42:46;8.60;99.90
50570;DHT22;36525;49.398;7.614;2022-11-06T15:50:26;8.60;99.90
50570;DHT22;36525;49.398;7.614;2022-11-06T15:56:03;8.50;99.90
50570;DHT22;36525;49.398;7.614;2022-11-06T15:58:34;8.50;99.90
50570;DHT22;36525;49.398;7.614;2022-11-06T16:01:04;8.50;99.90
50570;DHT22;36525;49.398;7.614;2022-11-06T16:03:49;8.50;99.90
50570;DHT22;36525;49.398;7.614;2022-11-06T16:06:18;8.50;99.90
50570;DHT22;36525;49.398;7.614;2022-11-06T16:08:46;8.40;99.90
50570;DHT22;36525;49.398;7.614;2022-11-06T16:11:16;8.40;99.90
50570;DHT22;36525;49.398;7.614;2022-11-06T16:13:44;8.30;99.90
50570;DHT22;36525;49.398;7.614;2022-11-06T16:19:05;8.40;99.90
50570;DHT22;36525;49.398;7.614;2022-11-06T16:21:59;8.40;99.90
50570;DHT22;36525;49.398;7.614;2022-11-06T16:24:39;8.30;99.90
50570;DHT22;36525;49.398;7.614;2022-11-06T16:27:09;8.30;99.90
50570;DHT22;36525;49.398;7.614;2022-11-06T16:29:37;8.30;99.90
50570;DHT22;36525;49.398;7.614;2022-11-06T16:32:14;8.20;99.90
50570;DHT22;36525;49.398;7.614;2022-11-06T16:34:45;8.20;99.90
50570;DHT22;36525;49.398;7.614;2022-11-06T16:39:49;8.20;99.90
50570;DHT22;36525;49.398;7.614;2022-11-06T16:47:33;8.20;99.90
50570;DHT22;36525;49.398;7.614;2022-11-06T16:50:00;8.10;99.90
50570;DHT22;36525;49.398;7.614;2022-11-06T16:52:35;8.10;99.90
50570;DHT22;36525;49.398;7.614;2022-11-06T16:57:52;8.10;99.90
50570;DHT22;36525;49.398;7.614;2022-11-06T17:00:27;8.10;99.90
50570;DHT22;36525;49.398;7.614;2022-11-06T17:02:59;8.10;99.90
50570;DHT22;36525;49.398;7.614;2022-11-06T17:05:29;8.10;99.90
50570;DHT22;36525;49.398;7.614;2022-11-06T17:10:48;8.00;99.90
50570;DHT22;36525;49.398;7.614;2022-11-06T17:16:00;8.00;99.90
50570;DHT22;36525;49.398;7.614;2022-11-06T17:18:34;8.10;99.90
50570;DHT22;36525;49.398;7.614;2022-11-06T17:21:03;8.10;99.90
50570;DHT22;36525;49.398;7.614;2022-11-06T17:23:32;8.10;99.90
50570;DHT22;36525;49.398;7.614;2022-11-06T17:28:39;8.20;99.90
50570;DHT22;36525;49.398;7.614;2022-11-06T17:31:13;8.20;99.90
50570;DHT22;36525;49.398;7.614;2022-11-06T17:33:45;8.30;99.90
50570;DHT22;36525;49.398;7.614;2022-11-06T17:36:23;8.30;99.90
50570;DHT22;36525;49.398;7.614;2022-11-06T17:38:53;8.30;99.90
50570;DHT22;36525;49.398;7.614;2022-11-06T17:41:21;8.30;99.90
50570;DHT22;36525;49.398;7.614;2022-11-06T17:44:06;8.20;99.90
50570;DHT22;36525;49.398;7.614;2022-11-06T17:46:42;8.20;99.90
50570;DHT22;36525;49.398;7.614;2022-11-06T17:49:12;8.20;99.90
50570;DHT22;36525;49.398;7.614;2022-11-06T17:51:47;8.20;99.90
50570;DHT22;36525;49.398;7.614;2022-11-06T17:54:30;8.20;99.90
50570;DHT22;36525;49.398;7.614;2022-11-06T17:56:59;8.20;99.90
50570;DHT22;36525;49.398;7.614;2022-11-06T17:59:27;8.10;99.90
50570;DHT22;36525;49.398;7.614;2022-11-06T18:01:54;8.00;99.90
50570;DHT22;36525;49.398;7.614;2022-11-06T18:04:23;8.00;99.90
50570;DHT22;36525;49.398;7.614;2022-11-06T18:06:52;8.00;99.90
50570;DHT22;36525;49.398;7.614;2022-11-06T18:09:21;8.10;99.90
50570;DHT22;36525;49.398;7.614;2022-11-06T18:11:50;8.10;99.90
50570;DHT22;36525;49.398;7.614;2022-11-06T18:14:19;8.00;99.90
50570;DHT22;36525;49.398;7.614;2022-11-06T18:16:48;8.10;99.90
50570;DHT22;36525;49.398;7.614;2022-11-06T18:19:20;8.10;99.90
50570;DHT22;36525;49.398;7.614;2022-11-06T18:21:49;8.10;99.90
50570;DHT22;36525;49.398;7.614;2022-11-06T18:24:16;8.10;99.90
50570;DHT22;36525;49.398;7.614;2022-11-06T18:26:43;8.20;99.90
50570;DHT22;36525;49.398;7.614;2022-11-06T18:29:11;8.20;99.90
50570;DHT22;36525;49.398;7.614;2022-11-06T18:31:39;8.20;99.90
50570;DHT22;36525;49.398;7.614;2022-11-06T18:34:09;8.10;99.90
50570;DHT22;36525;49.398;7.614;2022-11-06T18:36:45;8.10;99.90
50570;DHT22;36525;49.398;7.614;2022-11-06T18:39:13;8.10;99.90
50570;DHT22;36525;49.398;7.614;2022-11-06T18:41:40;8.00;99.90
50570;DHT22;36525;49.398;7.614;2022-11-06T18:44:07;8.00;99.90
50570;DHT22;36525;49.398;7.614;2022-11-06T18:46:34;8.00;99.90
50570;DHT22;36525;49.398;7.614;2022-11-06T18:49:01;8.00;99.90
50570;DHT22;36525;49.398;7.614;2022-11-06T18:51:30;8.10;99.90
50570;DHT22;36525;49.398;7.614;2022-11-06T18:54:04;8.10;99.90
50570;DHT22;36525;49.398;7.614;2022-11-06T18:56:33;8.10;99.90
50570;DHT22;36525;49.398;7.614;2022-11-06T18:59:03;8.10;99.90